Time;durP1;ratioP1;P1;durP2;ratioP2;P2;SDS_P1;SDS_P2;PMS_P1;PMS_P2;Temp;Humidity;BMP_temperature;BMP_pressure;BME280_temperature;BME280_humidity;BME280_pressure;Samples;Min_cycle;Max_cycle;Signal;HPM_P1;HPM_P2
2020/12/20 00:01:36;;;;;;;3.30;2.80;;;8.70;98.30;;;;;;5036454;28;20467;-63
2020/12/20 00:04:03;;;;;;;2.63;2.40;;;8.70;98.10;;;;;;5036545;28;20849;-63
2020/12/20 00:06:29;;;;;;;2.80;2.60;;;8.60;97.90;;;;;;5036416;28;20446;-63
2020/12/20 00:08:55;;;;;;;3.00;2.80;;;8.60;98.20;;;;;;5036433;28;20427;-63
2020/12/20 00:11:22;;;;;;;2.63;2.43;;;8.60;98.70;;;;;;5036255;28;20469;-63
2020/12/20 00:13:48;;;;;;;4.17;3.10;;;8.60;98.70;;;;;;5036198;28;20531;-63
2020/12/20 00:16:14;;;;;;;3.00;2.80;;;8.60;98.60;;;;;;5035911;28;20442;-63
2020/12/20 00:18:41;;;;;;;2.90;2.60;;;8.60;98.30;;;;;;5036197;28;20500;-63
2020/12/20 00:21:07;;;;;;;3.37;2.07;;;8.60;98.60;;;;;;5036091;28;20462;-63
2020/12/20 00:23:33;;;;;;;3.30;2.77;;;8.50;98.10;;;;;;5036091;28;20453;-63
2020/12/20 00:25:59;;;;;;;4.00;3.10;;;8.60;97.10;;;;;;5035877;28;20482;-63
2020/12/20 00:28:26;;;;;;;4.27;3.33;;;8.70;96.20;;;;;;5036074;28;20497;-63
2020/12/20 00:30:52;;;;;;;3.97;3.40;;;8.70;95.60;;;;;;5036000;28;20447;-63
2020/12/20 00:33:18;;;;;;;2.90;2.60;;;8.80;95.70;;;;;;5035917;28;20485;-63
2020/12/20 00:35:45;;;;;;;3.67;3.37;;;8.80;95.40;;;;;;5035927;28;20442;-63
2020/12/20 00:38:11;;;;;;;3.80;3.30;;;8.80;95.70;;;;;;5035870;28;20468;-63
2020/12/20 00:40:37;;;;;;;4.17;3.30;;;8.80;95.70;;;;;;5035422;28;20447;-63
2020/12/20 00:43:03;;;;;;;2.93;2.73;;;8.90;95.50;;;;;;5035792;28;20451;-63
2020/12/20 00:45:30;;;;;;;3.13;2.93;;;8.90;95.20;;;;;;5035426;28;20946;-63
2020/12/20 00:47:56;;;;;;;5.00;3.40;;;8.80;95.40;;;;;;5035573;28;20439;-63
2020/12/20 00:50:22;;;;;;;3.30;3.00;;;8.90;95.50;;;;;;5035632;28;20443;-63
2020/12/20 00:52:48;;;;;;;3.47;3.17;;;8.90;95.70;;;;;;5035490;28;20532;-63
2020/12/20 00:55:15;;;;;;;5.70;2.80;;;8.80;96.60;;;;;;5035562;28;20443;-63
2020/12/20 00:57:42;;;;;;;3.47;3.17;;;8.80;96.10;;;;;;5036129;28;20466;-63
2020/12/20 01:00:09;;;;;;;5.37;3.60;;;8.80;96.40;;;;;;5035451;28;20814;-63
2020/12/20 01:02:36;;;;;;;4.00;3.53;;;8.90;95.30;;;;;;5035323;28;20462;-63
2020/12/20 01:05:02;;;;;;;4.47;4.00;;;8.90;95.50;;;;;;5035072;28;20438;-63
2020/12/20 01:07:31;;;;;;;3.13;2.87;;;8.90;95.60;;;;;;5035548;28;20438;-63
2020/12/20 01:09:57;;;;;;;3.83;3.40;;;8.90;95.50;;;;;;5035265;28;20446;-66
2020/12/20 01:12:24;;;;;;;3.40;3.10;;;8.80;96.30;;;;;;5034856;28;20478;-63
2020/12/20 01:14:50;;;;;;;4.00;3.47;;;8.70;97.20;;;;;;5034872;28;21013;-63
2020/12/20 01:17:16;;;;;;;4.27;3.30;;;8.60;98.10;;;;;;5035105;28;20446;-63
2020/12/20 01:19:43;;;;;;;4.00;3.03;;;8.60;97.20;;;;;;5035073;28;20497;-63
2020/12/20 01:22:09;;;;;;;3.20;2.90;;;8.60;98.90;;;;;;5035007;28;20474;-63
2020/12/20 01:24:35;;;;;;;3.27;2.97;;;8.60;98.10;;;;;;5034978;28;20474;-63
2020/12/20 01:27:02;;;;;;;4.60;3.40;;;8.50;98.60;;;;;;5034709;28;20898;-63
2020/12/20 01:29:28;;;;;;;4.03;2.60;;;8.60;97.80;;;;;;5034593;28;20803;-63
2020/12/20 01:31:54;;;;;;;4.00;3.60;;;8.70;96.30;;;;;;5034457;28;21001;-63
2020/12/20 01:34:20;;;;;;;3.23;2.97;;;8.70;95.90;;;;;;5034824;28;20793;-63
2020/12/20 01:36:47;;;;;;;4.30;3.00;;;8.80;95.50;;;;;;5034765;28;20454;-63
2020/12/20 01:39:14;;;;;;;2.70;2.50;;;9.00;94.60;;;;;;5034660;28;20453;-63
2020/12/20 01:41:40;;;;;;;3.27;2.70;;;9.20;93.90;;;;;;5034611;28;20466;-63
2020/12/20 01:44:06;;;;;;;3.30;3.00;;;9.20;94.30;;;;;;5034330;28;20965;-63
2020/12/20 01:46:33;;;;;;;4.10;3.80;;;9.10;94.20;;;;;;5034541;28;20451;-63
2020/12/20 01:49:01;;;;;;;2.97;2.73;;;9.00;94.40;;;;;;5034749;28;20442;-63
2020/12/20 01:51:27;;;;;;;2.50;2.30;;;9.10;94.10;;;;;;5034325;28;20478;-63
2020/12/20 01:53:54;;;;;;;2.80;2.50;;;9.00;94.40;;;;;;5034320;28;20485;-63
2020/12/20 01:56:21;;;;;;;2.53;2.33;;;8.90;95.10;;;;;;5034944;28;20430;-63
2020/12/20 01:58:47;;;;;;;2.40;2.20;;;9.00;94.70;;;;;;5033803;28;20450;-63
2020/12/20 02:01:13;;;;;;;6.20;2.73;;;9.00;95.20;;;;;;5034250;28;20466;-63
2020/12/20 02:03:40;;;;;;;6.23;3.47;;;8.90;95.00;;;;;;5034217;28;20434;-63
2020/12/20 02:06:12;;;;;;;3.70;2.80;;;8.80;95.90;;;;;;5034198;28;20447;-64
2020/12/20 02:08:38;;;;;;;3.37;3.00;;;8.90;95.80;;;;;;5033909;28;20925;-64
2020/12/20 02:11:10;;;;;;;3.43;3.13;;;8.80;96.30;;;;;;5034252;28;20466;-64
2020/12/20 02:13:40;;;;;;;2.80;2.60;;;8.80;96.70;;;;;;5033727;28;20474;-64
2020/12/20 02:16:07;;;;;;;3.77;2.60;;;8.70;96.60;;;;;;5034879;28;20851;-64
2020/12/20 02:18:34;;;;;;;2.87;2.67;;;8.70;97.10;;;;;;5033972;28;20818;-64
2020/12/20 02:21:00;;;;;;;2.87;2.67;;;8.60;97.50;;;;;;5034032;28;20470;-64
2020/12/20 02:23:27;;;;;;;3.23;2.93;;;8.50;98.10;;;;;;5033902;28;20443;-64
2020/12/20 02:25:53;;;;;;;2.60;2.50;;;8.50;97.70;;;;;;5033635;28;20478;-64
2020/12/20 02:28:20;;;;;;;2.80;2.60;;;8.60;97.30;;;;;;5033881;28;20470;-64
2020/12/20 02:30:47;;;;;;;2.93;2.70;;;8.60;97.30;;;;;;5033351;28;20962;-64
2020/12/20 02:33:14;;;;;;;3.00;2.80;;;8.60;97.90;;;;;;5033676;28;20841;-64
2020/12/20 02:35:43;;;;;;;2.30;2.10;;;8.70;97.00;;;;;;5033714;28;20443;-64
2020/12/20 02:38:10;;;;;;;2.30;2.10;;;8.60;96.60;;;;;;5033700;28;20443;-64
2020/12/20 02:40:39;;;;;;;3.97;2.80;;;8.80;96.50;;;;;;5033532;28;20821;-64
2020/12/20 02:43:05;;;;;;;2.43;2.23;;;8.80;96.30;;;;;;5033433;28;20505;-64
2020/12/20 02:45:31;;;;;;;3.70;2.63;;;8.80;96.00;;;;;;5033299;28;20966;-64
2020/12/20 02:47:58;;;;;;;4.50;2.73;;;8.90;95.60;;;;;;5033489;28;20443;-63
2020/12/20 02:50:24;;;;;;;3.43;2.43;;;9.00;95.40;;;;;;5033526;28;20450;-64
2020/12/20 02:52:50;;;;;;;3.17;2.30;;;8.90;95.60;;;;;;5033310;28;20896;-64
2020/12/20 02:55:16;;;;;;;4.37;2.23;;;8.90;95.80;;;;;;5033454;28;20446;-64
2020/12/20 02:57:43;;;;;;;2.87;2.63;;;8.90;95.60;;;;;;5033388;28;20522;-64
2020/12/20 03:00:09;;;;;;;3.50;3.10;;;8.80;95.70;;;;;;5033384;28;20459;-64
2020/12/20 03:02:35;;;;;;;5.37;2.43;;;8.90;95.30;;;;;;5033287;28;20524;-70
2020/12/20 03:05:02;;;;;;;3.47;2.23;;;8.90;95.40;;;;;;5033308;28;20446;-70
2020/12/20 03:07:28;;;;;;;3.67;2.57;;;8.90;95.30;;;;;;5033274;28;20446;-70
2020/12/20 03:09:54;;;;;;;2.50;2.27;;;9.00;95.20;;;;;;5032401;28;20451;-70
2020/12/20 03:12:22;;;;;;;7.20;2.67;;;9.00;95.20;;;;;;5033086;28;20469;-70
2020/12/20 03:14:49;;;;;;;4.40;2.40;;;8.90;95.60;;;;;;5032911;28;20950;-70
2020/12/20 03:17:15;;;;;;;2.30;2.10;;;8.90;95.00;;;;;;5033207;28;20503;-70
2020/12/20 03:19:42;;;;;;;4.50;3.10;;;8.90;95.30;;;;;;5032878;28;20859;-70
2020/12/20 03:22:08;;;;;;;4.43;3.03;;;8.90;95.00;;;;;;5033069;28;20467;-70
2020/12/20 03:24:34;;;;;;;3.90;3.20;;;8.90;95.10;;;;;;5033151;28;20446;-70
2020/12/20 03:27:00;;;;;;;2.50;2.40;;;9.00;94.80;;;;;;5032757;28;20478;-70
2020/12/20 03:29:26;;;;;;;3.13;2.90;;;9.00;94.50;;;;;;5033117;28;20458;-70
2020/12/20 03:31:53;;;;;;;2.90;2.70;;;9.00;94.90;;;;;;5032987;28;20458;-70
2020/12/20 03:34:19;;;;;;;3.17;2.87;;;8.90;95.20;;;;;;5032729;28;20489;-70
2020/12/20 03:36:45;;;;;;;2.93;2.73;;;8.80;95.00;;;;;;5032740;28;20965;-70
2020/12/20 03:39:12;;;;;;;4.60;3.23;;;8.80;95.10;;;;;;5033016;28;20446;-70
2020/12/20 03:41:38;;;;;;;3.00;2.80;;;8.80;95.10;;;;;;5032887;28;20840;-70
2020/12/20 03:44:04;;;;;;;3.13;2.53;;;8.90;95.00;;;;;;5032958;28;20446;-71
2020/12/20 03:46:30;;;;;;;2.80;2.60;;;8.90;95.00;;;;;;5032656;28;20446;-70
2020/12/20 03:48:57;;;;;;;3.00;2.70;;;8.80;95.10;;;;;;5032915;28;20568;-70
2020/12/20 03:51:23;;;;;;;3.40;2.30;;;8.80;95.60;;;;;;5032748;28;20474;-70
2020/12/20 03:53:49;;;;;;;2.63;2.37;;;8.70;96.00;;;;;;5032805;28;20477;-70
2020/12/20 03:56:16;;;;;;;2.70;2.50;;;8.60;96.30;;;;;;5032901;28;20496;-70
2020/12/20 03:58:42;;;;;;;2.80;2.60;;;8.60;95.90;;;;;;5032814;28;20443;-70
2020/12/20 04:01:08;;;;;;;2.57;2.37;;;8.70;95.80;;;;;;5032728;28;20512;-70
2020/12/20 04:03:34;;;;;;;2.40;2.20;;;8.70;95.80;;;;;;5033058;28;20443;-70
2020/12/20 04:06:01;;;;;;;4.00;2.77;;;8.70;96.40;;;;;;5032758;28;20454;-70
2020/12/20 04:08:27;;;;;;;2.80;2.60;;;8.60;96.60;;;;;;5033636;28;20896;-70
2020/12/20 04:10:53;;;;;;;4.67;2.90;;;8.70;96.00;;;;;;5032655;28;20824;-70
2020/12/20 04:13:19;;;;;;;3.53;3.00;;;8.60;95.90;;;;;;5032732;28;20481;-70
2020/12/20 04:15:46;;;;;;;2.77;2.57;;;8.70;96.20;;;;;;5032752;28;20450;-70
2020/12/20 04:18:12;;;;;;;4.63;2.57;;;8.70;96.00;;;;;;5032713;28;20446;-70
2020/12/20 04:20:38;;;;;;;3.17;2.73;;;8.70;95.60;;;;;;5032629;28;20512;-70
2020/12/20 04:23:05;;;;;;;2.70;2.50;;;8.80;95.70;;;;;;5035801;28;20443;-70
2020/12/20 04:25:31;;;;;;;3.20;2.90;;;8.80;95.90;;;;;;5036230;28;20457;-70
2020/12/20 04:27:57;;;;;;;3.13;2.80;;;8.80;95.60;;;;;;5036177;28;20435;-70
2020/12/20 04:30:24;;;;;;;3.80;3.00;;;8.90;95.30;;;;;;5036076;28;20447;-70
2020/12/20 04:32:50;;;;;;;2.83;2.63;;;9.00;95.00;;;;;;5035581;28;21100;-70
2020/12/20 04:35:16;;;;;;;4.37;2.70;;;9.00;94.80;;;;;;5036009;28;20439;-70
2020/12/20 04:37:43;;;;;;;2.93;2.63;;;9.00;94.90;;;;;;5035641;28;20952;-70
2020/12/20 04:40:10;;;;;;;2.77;2.57;;;8.90;94.60;;;;;;5035566;28;20818;-70
2020/12/20 04:42:36;;;;;;;3.10;2.80;;;8.90;94.90;;;;;;5035785;28;20508;-70
2020/12/20 04:45:03;;;;;;;4.43;2.50;;;8.80;95.00;;;;;;5035824;28;20451;-70
2020/12/20 04:47:31;;;;;;;4.30;2.37;;;8.80;95.30;;;;;;5035454;28;20942;-70
2020/12/20 04:49:58;;;;;;;4.00;2.63;;;8.80;95.10;;;;;;5035713;28;20443;-70
2020/12/20 04:52:26;;;;;;;3.20;2.60;;;8.80;95.00;;;;;;5035261;28;20974;-70
2020/12/20 04:54:52;;;;;;;2.80;2.60;;;8.80;95.30;;;;;;5035640;28;20451;-70
2020/12/20 04:57:20;;;;;;;4.23;3.10;;;8.90;95.00;;;;;;5035569;28;20458;-70
2020/12/20 04:59:46;;;;;;;4.50;2.60;;;8.90;94.80;;;;;;5035503;28;20502;-70
2020/12/20 05:02:13;;;;;;;3.57;2.60;;;8.80;95.40;;;;;;5035424;28;20538;-70
2020/12/20 05:04:39;;;;;;;5.00;2.20;;;8.80;95.10;;;;;;5035442;28;20810;-70
2020/12/20 05:07:05;;;;;;;3.37;3.07;;;8.80;95.00;;;;;;5035399;28;20501;-70
2020/12/20 05:09:32;;;;;;;2.80;2.60;;;8.80;95.10;;;;;;5035377;28;20518;-70
2020/12/20 05:11:58;;;;;;;3.00;2.60;;;8.80;95.10;;;;;;5035229;28;20466;-70
2020/12/20 05:14:32;;;;;;;2.93;2.73;;;8.80;95.20;;;;;;5035177;28;20851;-70
2020/12/20 05:16:58;;;;;;;2.63;2.43;;;8.70;95.20;;;;;;5035263;28;20435;-70
2020/12/20 05:19:31;;;;;;;2.43;2.10;;;8.60;95.90;;;;;;5034894;28;20462;-70
2020/12/20 05:22:15;;;;;;;5.10;3.23;;;8.60;96.50;;;;;;5034797;28;21144;-70
2020/12/20 05:24:42;;;;;;;2.73;2.53;;;8.50;96.70;;;;;;5034788;28;20441;-70
2020/12/20 05:27:28;;;;;;;2.50;2.30;;;8.40;97.60;;;;;;5034636;28;20573;-70
2020/12/20 05:29:55;;;;;;;4.00;2.63;;;8.40;97.70;;;;;;5035015;28;20526;-70
2020/12/20 05:32:29;;;;;;;3.27;2.93;;;8.50;96.70;;;;;;5034558;28;20482;-70
2020/12/20 05:35:00;;;;;;;2.40;2.20;;;8.50;96.40;;;;;;5034870;28;20450;-70
2020/12/20 05:37:34;;;;;;;3.40;2.50;;;8.60;96.50;;;;;;5034840;28;20447;-70
2020/12/20 05:40:03;;;;;;;3.43;2.77;;;8.60;96.30;;;;;;5034454;28;20451;-70
2020/12/20 05:42:29;;;;;;;2.77;2.57;;;8.60;96.10;;;;;;5034608;28;20467;-70
2020/12/20 05:45:09;;;;;;;4.40;2.90;;;8.70;96.20;;;;;;5034686;28;20518;-70
2020/12/20 05:47:37;;;;;;;3.67;2.77;;;8.70;95.60;;;;;;5034647;28;20434;-70
2020/12/20 05:50:04;;;;;;;3.73;2.77;;;8.80;95.40;;;;;;5034264;28;20863;-70
2020/12/20 05:52:30;;;;;;;3.03;2.73;;;8.80;95.40;;;;;;5033995;28;21023;-70
2020/12/20 05:54:56;;;;;;;3.17;2.73;;;8.80;95.50;;;;;;5034475;28;20438;-71
2020/12/20 05:57:23;;;;;;;3.43;2.67;;;8.70;96.00;;;;;;5034432;28;20450;-70
2020/12/20 05:59:50;;;;;;;3.00;2.67;;;8.60;95.90;;;;;;5034398;28;20481;-71
2020/12/20 06:02:18;;;;;;;3.00;2.47;;;8.60;95.70;;;;;;5033967;28;20884;-70
2020/12/20 06:04:46;;;;;;;2.90;2.70;;;8.60;95.80;;;;;;5034375;28;20450;-70
2020/12/20 06:07:13;;;;;;;3.10;2.80;;;8.70;95.90;;;;;;5033987;28;20824;-70
2020/12/20 06:09:50;;;;;;;3.13;2.30;;;8.50;96.00;;;;;;5034193;28;20442;-70
2020/12/20 06:12:20;;;;;;;2.77;2.20;;;8.50;96.00;;;;;;5034423;28;20549;-70
2020/12/20 06:14:47;;;;;;;3.70;2.70;;;8.40;96.00;;;;;;5034120;28;20568;-71
2020/12/20 06:17:15;;;;;;;2.50;2.30;;;8.50;95.80;;;;;;5034121;28;20451;-70
2020/12/20 06:19:58;;;;;;;2.23;2.13;;;8.60;95.40;;;;;;5034039;28;20443;-70
2020/12/20 06:22:26;;;;;;;2.03;1.93;;;8.80;95.00;;;;;;5034006;28;20477;-71
2020/12/20 06:24:53;;;;;;;2.67;2.47;;;8.70;95.10;;;;;;5034032;28;20537;-70
2020/12/20 06:27:22;;;;;;;4.17;2.20;;;8.80;94.70;;;;;;5033800;28;20478;-70
2020/12/20 06:29:51;;;;;;;2.53;2.33;;;8.80;94.70;;;;;;5033839;28;20445;-70
2020/12/20 06:32:34;;;;;;;2.30;2.10;;;8.80;94.80;;;;;;5033758;28;20516;-70
2020/12/20 06:35:12;;;;;;;4.60;2.63;;;8.80;94.60;;;;;;5034065;28;20431;-70
2020/12/20 06:37:41;;;;;;;2.00;1.90;;;8.80;94.50;;;;;;5033782;28;20435;-70
2020/12/20 06:40:07;;;;;;;4.73;2.70;;;8.90;94.40;;;;;;5033695;28;20501;-70
2020/12/20 06:42:39;;;;;;;2.30;2.10;;;8.90;94.40;;;;;;5033608;28;20508;-70
2020/12/20 06:45:16;;;;;;;3.70;2.63;;;8.90;94.30;;;;;;5033792;28;20431;-70
2020/12/20 06:47:44;;;;;;;3.50;2.53;;;8.90;94.10;;;;;;5033626;28;20434;-70
2020/12/20 06:50:11;;;;;;;3.30;2.67;;;8.90;94.10;;;;;;5033504;28;20466;-70
2020/12/20 06:52:48;;;;;;;4.30;3.17;;;8.80;94.60;;;;;;5033057;28;20840;-70
2020/12/20 06:55:15;;;;;;;3.33;3.13;;;8.70;94.70;;;;;;5033477;28;20532;-70
2020/12/20 06:58:16;;;;;;;3.70;3.40;;;8.70;94.80;;;;;;5033462;28;20496;-70
2020/12/20 07:00:45;;;;;;;3.23;2.93;;;8.70;94.80;;;;;;5028084;28;20988;-70
2020/12/20 07:03:31;;;;;;;3.40;3.10;;;8.70;95.10;;;;;;5033343;28;20438;-70
2020/12/20 07:06:10;;;;;;;3.77;3.00;;;8.60;95.20;;;;;;5033043;28;20954;-70
2020/12/20 07:08:37;;;;;;;4.10;2.90;;;8.60;95.10;;;;;;5033401;28;20457;-70
2020/12/20 07:11:07;;;;;;;3.60;3.13;;;8.70;95.10;;;;;;5033159;28;20974;-70
2020/12/20 07:13:35;;;;;;;3.00;2.57;;;8.70;94.80;;;;;;5033227;28;20565;-70
2020/12/20 07:16:08;;;;;;;3.53;3.20;;;8.60;95.30;;;;;;5033264;28;20454;-70
2020/12/20 07:18:55;;;;;;;3.00;2.37;;;8.60;95.30;;;;;;5033388;28;20485;-70
2020/12/20 07:22:03;;;;;;;3.20;3.00;;;8.50;95.80;;;;;;5032909;28;20462;-70
2020/12/20 07:24:32;;;;;;;2.83;2.73;;;8.40;96.00;;;;;;5033249;28;20492;-70
2020/12/20 07:27:01;;;;;;;3.80;2.50;;;8.40;97.00;;;;;;5032960;28;20477;-70
2020/12/20 07:29:28;;;;;;;3.70;2.47;;;8.40;96.80;;;;;;5032823;28;20450;-70
2020/12/20 07:31:56;;;;;;;2.73;2.53;;;8.50;96.30;;;;;;5033035;28;20485;-70
2020/12/20 07:34:23;;;;;;;2.40;2.13;;;8.50;95.90;;;;;;5033042;28;20515;-70
2020/12/20 07:36:49;;;;;;;3.20;2.90;;;8.60;95.90;;;;;;5033040;28;20454;-70
2020/12/20 07:39:16;;;;;;;2.83;2.50;;;8.60;95.70;;;;;;5033076;28;20497;-70
2020/12/20 07:41:43;;;;;;;3.30;2.60;;;8.60;95.60;;;;;;5032938;28;20470;-70
2020/12/20 07:44:11;;;;;;;2.40;2.20;;;8.70;95.50;;;;;;5033795;28;20442;-70
2020/12/20 07:46:38;;;;;;;3.00;2.47;;;8.70;95.50;;;;;;5032663;28;20942;-70
2020/12/20 07:49:06;;;;;;;4.00;2.63;;;8.80;95.00;;;;;;5032936;28;20450;-70
2020/12/20 07:51:32;;;;;;;2.30;2.10;;;8.90;95.10;;;;;;5032875;28;20470;-70
2020/12/20 07:54:00;;;;;;;2.67;2.47;;;8.90;95.20;;;;;;5032836;28;20474;-70
2020/12/20 07:56:28;;;;;;;2.60;2.40;;;9.00;95.30;;;;;;5033782;28;20492;-70
2020/12/20 07:58:56;;;;;;;2.93;2.63;;;9.00;95.50;;;;;;5036386;28;20946;-70
2020/12/20 08:01:23;;;;;;;3.77;2.70;;;9.00;95.30;;;;;;5036566;28;20458;-70
2020/12/20 08:04:00;;;;;;;2.57;2.37;;;9.00;95.40;;;;;;5036420;28;20478;-70
2020/12/20 08:06:26;;;;;;;2.50;2.30;;;9.00;96.20;;;;;;5036606;28;20426;-70
2020/12/20 08:08:52;;;;;;;2.90;2.40;;;8.90;95.70;;;;;;5036531;28;20451;-70
2020/12/20 08:11:26;;;;;;;4.30;2.80;;;9.00;95.60;;;;;;5036395;28;20474;-70
2020/12/20 08:13:53;;;;;;;4.20;2.50;;;9.00;95.50;;;;;;5036089;28;20962;-70
2020/12/20 08:16:23;;;;;;;2.57;2.20;;;9.10;95.50;;;;;;5037149;28;20442;-70
2020/12/20 08:19:14;;;;;;;4.83;2.93;;;9.10;96.20;;;;;;5036306;28;20533;-70
2020/12/20 08:21:52;;;;;;;3.37;2.67;;;9.10;96.20;;;;;;5032170;28;20478;-70
2020/12/20 08:24:20;;;;;;;2.93;2.70;;;9.10;95.70;;;;;;5036244;28;20419;-70
2020/12/20 08:26:46;;;;;;;2.80;2.60;;;9.30;95.00;;;;;;5035849;28;20478;-70
2020/12/20 08:29:14;;;;;;;2.77;2.57;;;9.40;95.00;;;;;;5036605;28;20446;-71
2020/12/20 08:31:41;;;;;;;3.53;2.50;;;9.40;95.40;;;;;;5036007;28;20558;-71
2020/12/20 08:34:15;;;;;;;2.67;2.47;;;9.40;95.20;;;;;;5035994;28;20493;-71
2020/12/20 08:36:44;;;;;;;2.77;2.53;;;9.50;95.30;;;;;;5036039;28;20435;-71
2020/12/20 08:39:10;;;;;;;2.43;2.33;;;9.60;95.20;;;;;;5036060;28;20786;-71
2020/12/20 08:41:36;;;;;;;5.00;3.00;;;9.80;94.70;;;;;;5035901;28;20467;-71
2020/12/20 08:44:07;;;;;;;2.93;2.73;;;10.00;93.90;;;;;;5035906;28;20427;-70
2020/12/20 08:46:35;;;;;;;3.00;2.80;;;10.20;93.70;;;;;;5035848;28;20485;-71
2020/12/20 08:49:16;;;;;;;4.10;3.23;;;10.40;93.00;;;;;;5035486;28;20426;-71
2020/12/20 08:51:42;;;;;;;2.43;2.23;;;10.60;92.80;;;;;;5035668;28;20474;-71
2020/12/20 08:54:11;;;;;;;2.93;2.67;;;10.60;93.10;;;;;;5036165;28;20536;-71
2020/12/20 08:56:52;;;;;;;3.07;2.87;;;10.70;93.60;;;;;;5035630;28;20451;-71
2020/12/20 08:59:28;;;;;;;2.60;2.10;;;10.80;93.00;;;;;;5036266;28;20829;-70
2020/12/20 09:01:55;;;;;;;3.17;2.70;;;10.90;92.60;;;;;;5035511;28;20473;-71
2020/12/20 09:04:22;;;;;;;3.17;2.53;;;11.00;92.80;;;;;;5035468;28;20447;-71
2020/12/20 09:07:11;;;;;;;3.20;2.70;;;11.10;92.40;;;;;;5035428;28;20446;-71
2020/12/20 09:09:38;;;;;;;2.57;2.37;;;11.20;93.40;;;;;;5029414;28;20455;-71
2020/12/20 09:12:19;;;;;;;2.13;2.00;;;11.40;93.10;;;;;;5035512;28;20466;-71
2020/12/20 09:15:15;;;;;;;2.30;1.80;;;11.80;91.20;;;;;;5035287;28;20806;-71
2020/12/20 09:17:42;;;;;;;3.80;2.60;;;12.20;91.30;;;;;;4954865;29;20422;-71
2020/12/20 09:20:12;;;;;;;2.10;1.90;;;12.50;90.30;;;;;;5016968;28;20462;-70
2020/12/20 09:22:39;;;;;;;2.60;1.80;;;12.70;90.90;;;;;;5034754;28;21044;-70
2020/12/20 09:25:06;;;;;;;2.90;2.23;;;13.00;90.30;;;;;;5035053;28;20975;-71
2020/12/20 09:27:32;;;;;;;2.50;2.30;;;13.10;89.40;;;;;;5034785;28;20844;-71
2020/12/20 09:29:59;;;;;;;3.93;3.63;;;12.90;89.70;;;;;;5034667;28;20443;-71
2020/12/20 09:32:25;;;;;;;3.57;3.27;;;12.70;91.10;;;;;;5034820;28;20467;-71
2020/12/20 09:34:52;;;;;;;3.43;3.13;;;12.40;90.40;;;;;;5034461;28;20508;-70
2020/12/20 09:37:19;;;;;;;3.50;3.20;;;12.10;91.20;;;;;;5034879;28;20477;-71
2020/12/20 09:39:54;;;;;;;4.10;3.23;;;12.10;91.10;;;;;;5034811;28;20442;-71
2020/12/20 09:42:21;;;;;;;4.00;3.07;;;12.00;90.90;;;;;;5034678;28;20473;-71
2020/12/20 09:44:47;;;;;;;5.00;2.73;;;12.10;90.40;;;;;;5034705;28;20439;-71
2020/12/20 09:47:13;;;;;;;3.70;3.40;;;12.20;90.30;;;;;;5034587;28;20450;-71
2020/12/20 09:49:40;;;;;;;3.17;2.97;;;12.20;90.20;;;;;;5034643;28;20451;-70
2020/12/20 09:52:06;;;;;;;4.47;3.60;;;12.20;90.50;;;;;;5034741;28;20466;-70
2020/12/20 09:54:33;;;;;;;2.70;2.50;;;12.10;90.40;;;;;;5034459;28;20528;-71
2020/12/20 09:56:59;;;;;;;3.90;3.60;;;12.00;90.30;;;;;;5034459;28;20446;-71
2020/12/20 09:59:25;;;;;;;3.73;3.40;;;11.80;90.90;;;;;;5034420;28;20465;-71
2020/12/20 10:01:51;;;;;;;4.03;3.47;;;11.70;91.30;;;;;;5034007;28;20466;-71
2020/12/20 10:04:17;;;;;;;3.97;3.03;;;11.60;91.80;;;;;;5034362;28;20443;-71
2020/12/20 10:06:43;;;;;;;4.27;2.97;;;11.60;91.70;;;;;;5034361;28;20829;-70
2020/12/20 10:09:10;;;;;;;4.10;3.50;;;11.50;91.70;;;;;;5034278;28;20808;-71
2020/12/20 10:11:37;;;;;;;4.03;3.63;;;11.40;92.10;;;;;;5034149;28;20843;-71
2020/12/20 10:14:04;;;;;;;4.00;3.50;;;11.40;92.20;;;;;;5034112;28;20474;-71
2020/12/20 10:16:30;;;;;;;4.20;3.70;;;11.30;92.40;;;;;;5034092;28;20449;-71
2020/12/20 10:18:56;;;;;;;3.70;3.40;;;11.20;93.60;;;;;;5033430;28;20439;-70
2020/12/20 10:21:22;;;;;;;4.33;3.80;;;11.20;93.80;;;;;;5033957;28;20474;-71
2020/12/20 10:23:48;;;;;;;3.57;3.27;;;11.10;94.20;;;;;;5034235;28;20445;-71
2020/12/20 10:26:15;;;;;;;5.70;4.50;;;11.00;95.10;;;;;;5033915;28;20478;-71
2020/12/20 10:28:42;;;;;;;3.93;3.17;;;11.00;96.00;;;;;;5033921;28;20447;-71
2020/12/20 10:31:09;;;;;;;3.27;2.97;;;11.00;95.50;;;;;;5033811;28;20516;-71
2020/12/20 10:33:37;;;;;;;3.30;3.03;;;11.00;94.30;;;;;;5033740;28;20482;-71
2020/12/20 10:36:03;;;;;;;3.93;3.63;;;11.10;94.50;;;;;;5033766;28;20458;-71
2020/12/20 10:38:29;;;;;;;3.40;3.10;;;11.10;94.80;;;;;;5033776;28;20447;-71
2020/12/20 10:40:55;;;;;;;4.50;3.40;;;11.10;94.50;;;;;;5033635;28;20470;-70
2020/12/20 10:43:22;;;;;;;3.80;2.87;;;11.10;94.40;;;;;;5033682;28;20435;-70
2020/12/20 10:45:48;;;;;;;4.23;3.30;;;11.20;93.80;;;;;;5033630;28;20439;-70
2020/12/20 10:48:15;;;;;;;3.67;3.37;;;11.30;94.20;;;;;;5033655;28;20426;-70
2020/12/20 10:50:41;;;;;;;3.10;2.83;;;11.40;95.10;;;;;;5034063;28;20459;-70
2020/12/20 10:53:07;;;;;;;3.10;2.90;;;12.00;93.90;;;;;;5033452;28;20443;-71
2020/12/20 10:55:33;;;;;;;4.00;3.60;;;12.90;92.50;;;;;;5033530;28;20431;-71
2020/12/20 10:57:59;;;;;;;3.00;2.77;;;13.60;90.70;;;;;;5033580;28;20437;-71
2020/12/20 11:00:25;;;;;;;3.33;3.03;;;14.10;89.60;;;;;;5033515;28;20484;-71
2020/12/20 11:02:52;;;;;;;3.20;2.90;;;14.30;89.20;;;;;;5033074;28;20537;-71
2020/12/20 11:05:18;;;;;;;2.77;2.57;;;14.50;88.00;;;;;;5033369;28;20434;-71
2020/12/20 11:07:45;;;;;;;2.43;2.20;;;14.80;87.00;;;;;;5033434;28;20427;-71
2020/12/20 11:10:11;;;;;;;2.23;2.13;;;15.70;81.60;;;;;;5033339;28;20438;-71
2020/12/20 11:12:37;;;;;;;2.43;2.20;;;16.00;79.20;;;;;;5032979;28;20462;-71
2020/12/20 11:15:03;;;;;;;2.10;2.00;;;15.60;78.80;;;;;;5033216;28;20880;-71
2020/12/20 11:17:30;;;;;;;3.60;2.17;;;15.10;81.50;;;;;;5033272;28;20465;-71
2020/12/20 11:19:57;;;;;;;3.30;2.80;;;14.60;83.10;;;;;;5033288;28;20427;-71
2020/12/20 11:22:23;;;;;;;3.57;2.50;;;14.10;86.10;;;;;;5033188;28;20466;-71
2020/12/20 11:24:49;;;;;;;1.90;1.80;;;13.70;89.90;;;;;;5033233;28;20442;-71
2020/12/20 11:27:15;;;;;;;2.50;1.80;;;13.40;90.20;;;;;;5032948;28;20994;-71
2020/12/20 11:29:41;;;;;;;3.93;2.70;;;13.10;90.70;;;;;;5033171;28;20465;-71
2020/12/20 11:32:07;;;;;;;3.00;2.70;;;13.00;91.20;;;;;;5035144;28;20524;-71
2020/12/20 11:34:33;;;;;;;4.70;3.47;;;13.00;90.90;;;;;;5036808;28;20466;-71
2020/12/20 11:37:01;;;;;;;2.00;1.80;;;13.00;90.90;;;;;;5037102;28;20774;-70
2020/12/20 11:39:27;;;;;;;4.87;3.63;;;13.20;91.10;;;;;;5037123;28;20427;-71
2020/12/20 11:41:53;;;;;;;5.00;3.70;;;13.50;91.40;;;;;;5036989;28;20481;-71
2020/12/20 11:44:21;;;;;;;2.03;1.37;;;13.80;90.30;;;;;;5037032;28;20431;-71
2020/12/20 11:46:47;;;;;;;3.00;2.70;;;14.00;90.10;;;;;;5036989;28;20503;-71
2020/12/20 11:49:13;;;;;;;3.57;2.87;;;14.30;89.60;;;;;;5036873;28;20431;-71
2020/12/20 11:51:39;;;;;;;5.80;3.83;;;14.50;89.20;;;;;;5036547;28;21040;-71
2020/12/20 11:54:06;;;;;;;2.50;2.30;;;14.50;88.80;;;;;;5036783;28;20473;-71
2020/12/20 11:56:33;;;;;;;2.43;2.23;;;14.50;89.80;;;;;;5036782;28;20439;-71
2020/12/20 11:58:59;;;;;;;2.60;2.40;;;14.40;89.90;;;;;;5036851;28;20790;-71
2020/12/20 12:01:27;;;;;;;2.10;1.90;;;14.20;90.10;;;;;;5036623;28;20462;-71
2020/12/20 12:03:53;;;;;;;2.00;1.90;;;14.00;91.10;;;;;;5036944;28;20433;-71
2020/12/20 12:06:19;;;;;;;1.67;1.57;;;13.70;91.70;;;;;;5036336;28;20924;-72
2020/12/20 12:08:46;;;;;;;2.13;1.77;;;13.50;91.80;;;;;;5036634;28;20446;-71
2020/12/20 12:11:18;;;;;;;1.87;1.60;;;13.40;92.40;;;;;;5036444;28;20471;-71
2020/12/20 12:13:44;;;;;;;2.27;2.07;;;13.20;93.50;;;;;;5036446;28;20463;-72
2020/12/20 12:16:10;;;;;;;2.53;1.90;;;13.00;94.40;;;;;;5036065;28;20461;-71
2020/12/20 12:18:36;;;;;;;2.40;1.90;;;12.80;95.40;;;;;;5036396;28;20806;-71
2020/12/20 12:21:03;;;;;;;4.00;1.83;;;12.60;95.40;;;;;;5036273;28;20497;-72
2020/12/20 12:23:29;;;;;;;1.40;1.30;;;12.60;96.20;;;;;;5036570;28;20427;-72
2020/12/20 12:25:55;;;;;;;3.37;2.00;;;12.40;96.50;;;;;;5036079;28;20508;-71
2020/12/20 12:28:22;;;;;;;1.70;1.60;;;12.40;96.60;;;;;;5036162;28;20492;-71
2020/12/20 12:30:48;;;;;;;2.40;2.00;;;12.30;96.80;;;;;;5036112;28;20431;-72
2020/12/20 12:33:14;;;;;;;2.90;2.60;;;12.30;96.30;;;;;;5036033;28;20441;-72
2020/12/20 12:35:40;;;;;;;4.47;2.60;;;12.30;96.10;;;;;;5036217;28;20435;-71
2020/12/20 12:38:06;;;;;;;3.30;2.70;;;12.20;96.00;;;;;;5036013;28;20434;-71
2020/12/20 12:40:33;;;;;;;3.23;2.70;;;12.10;96.60;;;;;;5036155;28;20422;-72
2020/12/20 12:42:59;;;;;;;5.07;3.10;;;12.00;97.10;;;;;;5035290;28;20813;-71
2020/12/20 12:45:26;;;;;;;4.37;2.70;;;12.00;97.60;;;;;;5035918;28;20445;-71
2020/12/20 12:47:52;;;;;;;3.83;3.10;;;12.00;98.00;;;;;;5035834;28;20426;-72
2020/12/20 12:50:18;;;;;;;3.40;2.20;;;12.00;98.10;;;;;;5035809;28;20427;-72
2020/12/20 12:52:44;;;;;;;8.30;5.33;;;12.00;98.10;;;;;;5035720;28;20463;-71
2020/12/20 12:55:10;;;;;;;3.40;3.10;;;12.10;97.40;;;;;;5035609;28;20466;-72
2020/12/20 12:57:37;;;;;;;4.13;3.00;;;12.20;97.10;;;;;;5035653;28;20485;-72